Time;durP1;ratioP1;P1;durP2;ratioP2;P2;SDS_P1;SDS_P2;PMS_P1;PMS_P2;Temp;Humidity;BMP_temperature;BMP_pressure;BME280_temperature;BME280_humidity;BME280_pressure;Samples;Min_cycle;Max_cycle;Signal;HPM_P1;HPM_P2
2021/12/11 00:00:07;;;;;;;23.73;13.88;;;;;;;;;;5061157;28;20500;-70
2021/12/11 00:02:34;;;;;;;30.25;15.85;;;;;;;;;;5066867;28;20053;-70
2021/12/11 00:05:01;;;;;;;27.58;14.85;;;;;;;;;;5073303;28;20497;-70
2021/12/11 00:07:29;;;;;;;22.98;15.98;;;;;;;;;;5072278;28;20053;-69
2021/12/11 00:09:57;;;;;;;24.35;15.27;;;;;;;;;;5073776;28;20053;-69
2021/12/11 00:12:36;;;;;;;30.50;16.00;;;;;;;;;;5073983;28;20049;-67
2021/12/11 00:15:06;;;;;;;29.17;17.35;;;;;;;;;;5069735;28;20415;-70
2021/12/11 00:17:33;;;;;;;25.35;15.35;;;;;;;;;;5071790;28;20479;-69
2021/12/11 00:20:00;;;;;;;28.83;15.65;;;;;;;;;;5073405;28;20049;-69
2021/12/11 00:22:28;;;;;;;25.65;14.77;;;;;;;;;;5073647;28;20053;-70
2021/12/11 00:24:59;;;;;;;27.65;16.42;;;;;;;;;;5074253;28;20052;-69
2021/12/11 00:27:27;;;;;;;26.65;14.73;;;;;;;;;;5073047;28;20045;-69
2021/12/11 00:29:54;;;;;;;24.17;14.05;;;;;;;;;;5073347;28;20064;-69
2021/12/11 00:32:24;;;;;;;33.33;16.88;;;;;;;;;;5072640;28;20049;-70
2021/12/11 00:34:52;;;;;;;22.00;13.63;;;;;;;;;;5072908;28;20049;-69
2021/12/11 00:37:20;;;;;;;25.40;14.80;;;;;;;;;;5074062;28;20049;-70
2021/12/11 00:39:51;;;;;;;24.20;14.50;;;;;;;;;;5067679;28;20067;-69
2021/12/11 00:42:20;;;;;;;26.52;13.98;;;;;;;;;;5076374;28;20476;-69
2021/12/11 00:44:48;;;;;;;23.25;14.05;;;;;;;;;;5086345;28;20057;-70
2021/12/11 00:47:15;;;;;;;26.35;14.45;;;;;;;;;;5072408;28;20153;-70
2021/12/11 00:49:53;;;;;;;26.98;15.02;;;;;;;;;;5073307;28;20053;-71
2021/12/11 00:52:34;;;;;;;21.95;14.63;;;;;;;;;;5072864;28;20049;-69
2021/12/11 00:55:04;;;;;;;21.73;14.02;;;;;;;;;;5073211;28;20563;-69
2021/12/11 00:57:30;;;;;;;19.23;14.00;;;;;;;;;;5078022;28;20049;-70
2021/12/11 01:00:08;;;;;;;21.10;12.88;;;;;;;;;;5071601;28;20049;-70
2021/12/11 01:02:34;;;;;;;22.45;14.02;;;;;;;;;;5069948;28;20053;-69
2021/12/11 01:05:01;;;;;;;26.73;14.52;;;;;;;;;;5072476;28;20099;-70
2021/12/11 01:07:31;;;;;;;22.45;12.80;;;;;;;;;;5070600;28;20045;-69
2021/12/11 01:10:01;;;;;;;23.85;14.43;;;;;;;;;;5060956;28;20076;-70
2021/12/11 01:12:40;;;;;;;25.88;14.73;;;;;;;;;;5074038;28;20503;-71
2021/12/11 01:15:13;;;;;;;21.08;14.63;;;;;;;;;;5083328;28;20056;-70
2021/12/11 01:17:59;;;;;;;24.13;14.40;;;;;;;;;;5071771;28;20053;-68
2021/12/11 01:20:35;;;;;;;20.07;13.37;;;;;;;;;;5068808;28;20514;-70
2021/12/11 01:23:13;;;;;;;22.50;14.25;;;;;;;;;;5072931;28;20156;-69
2021/12/11 01:25:44;;;;;;;26.08;16.05;;;;;;;;;;5090005;28;20514;-71
2021/12/11 01:28:10;;;;;;;29.70;17.20;;;;;;;;;;5058519;28;20045;-70
2021/12/11 01:30:38;;;;;;;26.67;16.80;;;;;;;;;;5072598;28;20053;-70
2021/12/11 01:33:06;;;;;;;31.92;17.95;;;;;;;;;;5072605;28;20500;-70
2021/12/11 01:35:33;;;;;;;28.85;17.27;;;;;;;;;;5072576;28;20049;-70
2021/12/11 01:38:03;;;;;;;28.02;16.40;;;;;;;;;;5072017;28;20092;-70
2021/12/11 01:40:31;;;;;;;26.85;16.92;;;;;;;;;;5079970;28;20056;-70
2021/12/11 01:43:02;;;;;;;24.15;15.98;;;;;;;;;;5052502;28;20049;-71
2021/12/11 01:45:30;;;;;;;26.55;14.73;;;;;;;;;;5067391;28;20053;-70
2021/12/11 01:47:56;;;;;;;26.75;15.65;;;;;;;;;;5061472;28;20055;-71
2021/12/11 01:50:37;;;;;;;23.60;16.92;;;;;;;;;;5072148;28;20063;-70
2021/12/11 01:53:07;;;;;;;25.40;16.20;;;;;;;;;;5072174;28;20493;-67
2021/12/11 01:55:38;;;;;;;21.98;14.85;;;;;;;;;;5078343;28;20057;-69
2021/12/11 01:58:07;;;;;;;24.08;16.08;;;;;;;;;;5071499;28;20150;-69
2021/12/11 02:00:37;;;;;;;28.77;16.10;;;;;;;;;;5070905;28;20543;-69
2021/12/11 02:03:06;;;;;;;29.20;15.70;;;;;;;;;;5070660;28;20448;-68
2021/12/11 02:05:33;;;;;;;22.65;15.32;;;;;;;;;;5059051;28;20053;-69
2021/12/11 02:08:02;;;;;;;26.42;16.08;;;;;;;;;;5071217;28;20049;-69
2021/12/11 02:10:33;;;;;;;24.50;14.70;;;;;;;;;;5072265;28;20147;-69
2021/12/11 02:13:00;;;;;;;28.67;15.40;;;;;;;;;;5072295;28;20489;-69
2021/12/11 02:15:33;;;;;;;24.02;14.30;;;;;;;;;;5071181;28;20059;-69
2021/12/11 02:18:08;;;;;;;24.92;15.25;;;;;;;;;;5071017;28;20052;-69
2021/12/11 02:20:37;;;;;;;26.63;16.55;;;;;;;;;;5072040;28;20481;-70
2021/12/11 02:23:04;;;;;;;25.25;15.65;;;;;;;;;;5071378;28;20053;-69
2021/12/11 02:25:33;;;;;;;24.42;15.50;;;;;;;;;;5070735;28;20497;-69
2021/12/11 02:28:05;;;;;;;22.55;15.23;;;;;;;;;;5071441;28;20053;-69
2021/12/11 02:30:34;;;;;;;23.55;14.77;;;;;;;;;;5062192;28;20170;-70
2021/12/11 02:33:03;;;;;;;21.75;14.45;;;;;;;;;;5071455;28;20057;-71
2021/12/11 02:35:45;;;;;;;22.52;14.55;;;;;;;;;;5071610;28;20060;-69
2021/12/11 02:38:19;;;;;;;22.08;14.75;;;;;;;;;;5071052;28;20144;-69
2021/12/11 02:40:51;;;;;;;17.77;12.95;;;;;;;;;;5071306;28;20061;-70
2021/12/11 02:43:17;;;;;;;23.77;13.73;;;;;;;;;;5071514;28;20045;-69
2021/12/11 02:45:43;;;;;;;25.77;15.00;;;;;;;;;;5071886;28;20055;-69
2021/12/11 02:48:12;;;;;;;22.70;14.73;;;;;;;;;;5070352;28;20140;-68
2021/12/11 02:50:51;;;;;;;21.77;14.15;;;;;;;;;;5070057;28;20481;-69
2021/12/11 02:53:29;;;;;;;28.80;16.15;;;;;;;;;;5071731;28;20057;-69
2021/12/11 02:56:02;;;;;;;20.60;13.80;;;;;;;;;;5070049;28;20421;-67
2021/12/11 02:58:32;;;;;;;28.13;15.88;;;;;;;;;;5070982;28;20041;-69
2021/12/11 03:01:01;;;;;;;25.85;14.82;;;;;;;;;;5072001;28;20052;-70
2021/12/11 03:03:37;;;;;;;28.40;16.25;;;;;;;;;;5072990;28;20137;-70
2021/12/11 03:06:14;;;;;;;25.55;14.93;;;;;;;;;;5073766;28;20057;-68
2021/12/11 03:08:41;;;;;;;25.33;15.50;;;;;;;;;;5061803;28;20052;-69
2021/12/11 03:11:10;;;;;;;26.05;15.23;;;;;;;;;;5074578;28;20057;-70
2021/12/11 03:13:39;;;;;;;25.15;14.70;;;;;;;;;;5075481;28;20064;-71
2021/12/11 03:16:07;;;;;;;24.48;14.45;;;;;;;;;;5074523;28;20068;-70
2021/12/11 03:18:34;;;;;;;25.92;15.40;;;;;;;;;;5074194;28;20057;-70
2021/12/11 03:21:00;;;;;;;24.98;14.18;;;;;;;;;;5074839;28;20057;-69
2021/12/11 03:23:27;;;;;;;24.20;13.65;;;;;;;;;;5074139;28;20045;-70
2021/12/11 03:25:53;;;;;;;27.92;15.68;;;;;;;;;;5074236;28;20057;-69
2021/12/11 03:28:20;;;;;;;23.52;14.05;;;;;;;;;;5072880;28;20499;-69
2021/12/11 03:30:52;;;;;;;21.35;14.73;;;;;;;;;;5074358;28;20515;-70
2021/12/11 03:33:19;;;;;;;26.00;15.05;;;;;;;;;;5073773;28;20059;-69
2021/12/11 03:35:46;;;;;;;25.27;14.95;;;;;;;;;;5074641;28;20055;-70
2021/12/11 03:38:13;;;;;;;20.88;14.52;;;;;;;;;;5072933;28;20082;-71
2021/12/11 03:40:40;;;;;;;20.60;13.93;;;;;;;;;;5073493;28;20053;-69
2021/12/11 03:43:08;;;;;;;24.83;15.02;;;;;;;;;;5074774;28;20049;-69
2021/12/11 03:45:36;;;;;;;26.90;15.80;;;;;;;;;;5074437;28;20055;-70
2021/12/11 03:48:14;;;;;;;24.60;16.35;;;;;;;;;;5073622;28;20876;-69
2021/12/11 03:50:41;;;;;;;27.95;16.42;;;;;;;;;;5064580;28;20049;-71
2021/12/11 03:53:07;;;;;;;28.25;16.08;;;;;;;;;;5073325;28;20086;-70
2021/12/11 03:55:36;;;;;;;26.10;16.75;;;;;;;;;;5074084;28;20505;-71
2021/12/11 03:58:03;;;;;;;22.15;15.32;;;;;;;;;;5073443;28;20417;-71
2021/12/11 04:00:37;;;;;;;26.95;16.48;;;;;;;;;;5073259;28;20114;-69
2021/12/11 04:03:06;;;;;;;25.10;15.50;;;;;;;;;;5073705;28;20053;-69
2021/12/11 04:05:34;;;;;;;26.92;16.10;;;;;;;;;;5073670;28;20053;-69
2021/12/11 04:08:01;;;;;;;27.30;16.25;;;;;;;;;;5073656;28;20503;-69
2021/12/11 04:10:27;;;;;;;23.35;16.00;;;;;;;;;;5073593;28;20053;-69
2021/12/11 04:12:56;;;;;;;25.02;15.95;;;;;;;;;;5073684;28;20496;-69
2021/12/11 04:15:22;;;;;;;23.20;14.85;;;;;;;;;;5073421;28;20057;-70
2021/12/11 04:17:49;;;;;;;27.40;16.55;;;;;;;;;;5072842;28;20049;-70
2021/12/11 04:20:18;;;;;;;27.02;16.02;;;;;;;;;;5073814;28;20194;-70
2021/12/11 04:22:44;;;;;;;27.65;15.35;;;;;;;;;;5073732;28;20055;-69
2021/12/11 04:25:12;;;;;;;26.90;16.77;;;;;;;;;;5073690;28;20053;-70
2021/12/11 04:27:38;;;;;;;23.70;15.68;;;;;;;;;;5072757;28;20133;-69
2021/12/11 04:30:08;;;;;;;23.63;15.85;;;;;;;;;;5073003;28;20049;-69
2021/12/11 04:32:35;;;;;;;25.92;15.43;;;;;;;;;;5072753;28;20056;-70
2021/12/11 04:35:03;;;;;;;23.63;16.30;;;;;;;;;;5073264;28;20471;-70
2021/12/11 04:37:31;;;;;;;26.83;16.48;;;;;;;;;;5060356;28;20460;-72
2021/12/11 04:40:01;;;;;;;27.13;15.65;;;;;;;;;;5073801;28;20858;-69
2021/12/11 04:42:43;;;;;;;25.27;15.10;;;;;;;;;;5074976;28;20049;-71
2021/12/11 04:45:12;;;;;;;25.65;15.85;;;;;;;;;;5073827;28;20536;-69
2021/12/11 04:47:48;;;;;;;26.60;16.77;;;;;;;;;;5072932;28;20510;-69
2021/12/11 04:50:25;;;;;;;29.52;16.95;;;;;;;;;;5072755;28;20053;-68
2021/12/11 04:52:55;;;;;;;24.75;15.38;;;;;;;;;;5064100;28;20049;-68
2021/12/11 04:55:41;;;;;;;23.00;14.77;;;;;;;;;;5073454;28;20060;-70
2021/12/11 04:58:25;;;;;;;21.52;13.93;;;;;;;;;;5056297;28;20063;-70
2021/12/11 05:11:49;;;;;;;25.40;14.90;;;;;;;;;;5072764;28;20132;-70
2021/12/11 05:14:18;;;;;;;27.13;16.55;;;;;;;;;;5072840;28;20060;-71
2021/12/11 05:16:44;;;;;;;25.98;15.85;;;;;;;;;;5072620;28;20519;-70
2021/12/11 05:19:11;;;;;;;27.25;15.68;;;;;;;;;;5066381;28;20111;-68
2021/12/11 05:21:37;;;;;;;32.17;17.17;;;;;;;;;;5072710;28;20060;-70
2021/12/11 05:24:04;;;;;;;32.42;16.63;;;;;;;;;;5072625;28;20092;-69
2021/12/11 05:26:31;;;;;;;26.65;15.88;;;;;;;;;;5072485;28;20047;-69
2021/12/11 05:28:57;;;;;;;28.08;16.90;;;;;;;;;;5072191;28;20053;-69
2021/12/11 05:31:23;;;;;;;28.52;15.90;;;;;;;;;;5072420;28;20045;-69
2021/12/11 05:33:50;;;;;;;27.75;16.20;;;;;;;;;;5072495;28;20059;-69
2021/12/11 05:36:17;;;;;;;28.88;17.25;;;;;;;;;;5070875;28;20049;-69
2021/12/11 05:38:47;;;;;;;29.40;16.00;;;;;;;;;;5071248;28;20053;-70
2021/12/11 05:41:14;;;;;;;33.05;17.40;;;;;;;;;;5071647;28;20140;-68
2021/12/11 05:43:41;;;;;;;31.48;17.83;;;;;;;;;;5072934;28;20052;-69
2021/12/11 05:46:08;;;;;;;25.83;16.50;;;;;;;;;;5071515;28;20207;-69
2021/12/11 05:48:35;;;;;;;34.28;17.85;;;;;;;;;;5072816;28;20319;-69
2021/12/11 05:51:03;;;;;;;32.70;18.40;;;;;;;;;;5071954;28;20055;-69
2021/12/11 05:53:31;;;;;;;27.48;17.17;;;;;;;;;;5072240;28;20075;-69
2021/12/11 05:55:59;;;;;;;27.80;17.45;;;;;;;;;;5071780;28;20496;-68
2021/12/11 05:58:46;;;;;;;27.88;16.98;;;;;;;;;;5071006;28;20057;-68
2021/12/11 06:01:15;;;;;;;29.02;17.00;;;;;;;;;;5072122;28;20540;-69
2021/12/11 06:03:41;;;;;;;27.88;17.65;;;;;;;;;;5071412;28;20107;-69
2021/12/11 06:06:08;;;;;;;34.58;19.48;;;;;;;;;;5071553;28;20049;-69
2021/12/11 06:08:34;;;;;;;28.63;18.45;;;;;;;;;;5072000;28;20140;-69
2021/12/11 06:11:01;;;;;;;31.67;18.70;;;;;;;;;;5070965;28;20053;-69
2021/12/11 06:13:29;;;;;;;33.15;18.88;;;;;;;;;;5072162;28;20175;-69
2021/12/11 06:15:56;;;;;;;35.50;19.48;;;;;;;;;;5071848;28;20061;-69
2021/12/11 06:18:22;;;;;;;31.55;19.15;;;;;;;;;;5070364;28;20056;-69
2021/12/11 06:20:49;;;;;;;34.00;19.17;;;;;;;;;;5071324;28;20053;-68
2021/12/11 06:23:16;;;;;;;32.03;18.77;;;;;;;;;;5071970;28;20488;-68
2021/12/11 06:25:43;;;;;;;36.50;19.05;;;;;;;;;;5071746;28;20140;-69
2021/12/11 06:28:09;;;;;;;34.75;19.15;;;;;;;;;;5071157;28;20519;-70
2021/12/11 06:30:36;;;;;;;38.58;21.30;;;;;;;;;;5072291;28;20405;-69
2021/12/11 06:33:03;;;;;;;36.58;19.88;;;;;;;;;;5072244;28;20049;-69
2021/12/11 06:35:48;;;;;;;38.88;21.25;;;;;;;;;;5070969;28;20511;-69
2021/12/11 06:38:17;;;;;;;38.72;20.38;;;;;;;;;;5071864;28;20047;-69
2021/12/11 06:40:43;;;;;;;33.80;19.95;;;;;;;;;;5064732;28;20065;-70
2021/12/11 06:43:10;;;;;;;41.13;21.40;;;;;;;;;;5073910;28;20049;-68
2021/12/11 06:45:37;;;;;;;38.53;20.30;;;;;;;;;;5068779;28;20056;-70
2021/12/11 06:48:04;;;;;;;40.25;22.00;;;;;;;;;;5075284;28;20052;-70
2021/12/11 06:50:30;;;;;;;38.33;20.58;;;;;;;;;;5075223;28;20049;-69
2021/12/11 06:52:58;;;;;;;46.47;20.98;;;;;;;;;;5075341;28;20483;-69
2021/12/11 06:55:25;;;;;;;46.97;21.92;;;;;;;;;;5074588;28;20048;-69
2021/12/11 06:57:51;;;;;;;47.50;21.45;;;;;;;;;;5073484;28;20052;-69
2021/12/11 07:00:19;;;;;;;42.55;21.67;;;;;;;;;;5070891;28;20064;-69
2021/12/11 07:02:45;;;;;;;34.78;19.02;;;;;;;;;;5060273;28;20077;-70
2021/12/11 07:05:12;;;;;;;43.30;21.05;;;;;;;;;;5071528;28;20064;-69
2021/12/11 07:07:41;;;;;;;47.05;22.88;;;;;;;;;;5063058;28;20049;-69
2021/12/11 07:10:08;;;;;;;51.17;22.60;;;;;;;;;;5064993;28;20046;-69
2021/12/11 07:12:35;;;;;;;51.00;22.50;;;;;;;;;;5057127;28;20579;-69
2021/12/11 07:15:04;;;;;;;43.58;23.40;;;;;;;;;;5061808;28;20156;-69
2021/12/11 07:17:30;;;;;;;42.88;21.98;;;;;;;;;;5058217;28;20081;-67
2021/12/11 07:19:57;;;;;;;42.53;21.10;;;;;;;;;;5074152;28;20551;-69
2021/12/11 07:22:23;;;;;;;38.90;21.33;;;;;;;;;;5067473;28;20057;-68
2021/12/11 07:24:55;;;;;;;45.80;22.45;;;;;;;;;;5061566;28;20496;-69
2021/12/11 07:27:22;;;;;;;53.20;22.67;;;;;;;;;;5073754;28;20139;-67
2021/12/11 07:29:48;;;;;;;44.28;22.83;;;;;;;;;;5072414;28;20511;-68
2021/12/11 07:32:15;;;;;;;42.47;20.65;;;;;;;;;;5086949;28;20044;-69
2021/12/11 07:34:41;;;;;;;41.17;22.20;;;;;;;;;;5074443;28;20055;-69
2021/12/11 07:37:08;;;;;;;41.63;22.63;;;;;;;;;;5076400;28;20061;-71
2021/12/11 07:39:34;;;;;;;37.70;21.48;;;;;;;;;;5072560;28;20053;-68
2021/12/11 07:42:01;;;;;;;44.58;21.65;;;;;;;;;;5074672;28;20075;-69
2021/12/11 07:44:27;;;;;;;42.38;21.40;;;;;;;;;;5074293;28;20538;-69
2021/12/11 07:46:55;;;;;;;46.83;23.13;;;;;;;;;;5073791;28;20049;-69
2021/12/11 07:49:21;;;;;;;46.95;22.85;;;;;;;;;;5072294;28;20128;-69
2021/12/11 07:51:49;;;;;;;45.60;23.45;;;;;;;;;;5073222;28;20057;-69
2021/12/11 07:54:16;;;;;;;44.90;21.85;;;;;;;;;;5074013;28;20424;-68
2021/12/11 07:56:43;;;;;;;37.60;20.58;;;;;;;;;;5077928;28;20054;-69
2021/12/11 07:59:10;;;;;;;41.50;22.60;;;;;;;;;;5077598;28;20489;-70
2021/12/11 08:01:37;;;;;;;43.08;23.15;;;;;;;;;;5074063;28;20059;-68
2021/12/11 08:04:04;;;;;;;40.67;21.13;;;;;;;;;;5073501;28;20413;-69
2021/12/11 08:06:32;;;;;;;43.58;21.27;;;;;;;;;;5072455;28;20044;-68
2021/12/11 08:08:59;;;;;;;42.08;22.65;;;;;;;;;;5072635;28;20057;-68
2021/12/11 08:11:28;;;;;;;40.05;20.77;;;;;;;;;;5073921;28;20057;-69
2021/12/11 08:13:55;;;;;;;44.78;21.73;;;;;;;;;;5070118;28;20052;-68
2021/12/11 08:16:24;;;;;;;36.67;19.85;;;;;;;;;;5073240;28;20147;-68
2021/12/11 08:18:53;;;;;;;43.10;23.20;;;;;;;;;;5070818;28;20049;-68
2021/12/11 08:21:20;;;;;;;42.42;22.13;;;;;;;;;;5072508;28;20445;-69
2021/12/11 08:23:49;;;;;;;48.80;23.27;;;;;;;;;;5083058;28;20049;-69
2021/12/11 08:26:18;;;;;;;40.13;21.77;;;;;;;;;;5057076;28;20497;-68
2021/12/11 08:28:45;;;;;;;51.20;23.38;;;;;;;;;;5063300;28;20578;-69
2021/12/11 08:31:14;;;;;;;45.00;22.10;;;;;;;;;;5069223;28;20148;-69
2021/12/11 08:33:41;;;;;;;57.17;21.80;;;;;;;;;;5068798;28;20064;-68
2021/12/11 08:36:09;;;;;;;42.95;23.52;;;;;;;;;;5069010;28;20115;-68
2021/12/11 08:38:35;;;;;;;44.75;23.42;;;;;;;;;;5072808;28;20060;-66
2021/12/11 08:41:05;;;;;;;42.50;24.10;;;;;;;;;;5072958;28;20059;-68
2021/12/11 08:43:31;;;;;;;46.47;22.73;;;;;;;;;;5072757;28;20048;-68
2021/12/11 08:46:11;;;;;;;42.80;22.77;;;;;;;;;;5073507;28;20088;-67
2021/12/11 08:48:39;;;;;;;41.22;22.77;;;;;;;;;;5083089;28;20496;-68
2021/12/11 08:51:08;;;;;;;51.17;22.63;;;;;;;;;;5083424;28;20048;-67
2021/12/11 08:53:36;;;;;;;48.13;24.13;;;;;;;;;;5072982;28;20128;-67
2021/12/11 08:56:05;;;;;;;39.58;22.08;;;;;;;;;;5074574;28;20481;-65
2021/12/11 08:58:31;;;;;;;48.00;24.02;;;;;;;;;;5072496;28;20940;-66
2021/12/11 09:01:18;;;;;;;42.88;21.92;;;;;;;;;;5071998;28;20053;-66
2021/12/11 09:03:53;;;;;;;44.65;22.55;;;;;;;;;;5073394;28;20107;-66
2021/12/11 09:06:35;;;;;;;49.85;23.52;;;;;;;;;;5072960;28;20053;-66
2021/12/11 09:09:01;;;;;;;42.83;22.70;;;;;;;;;;5068804;28;20056;-66
2021/12/11 09:11:30;;;;;;;46.17;22.42;;;;;;;;;;5072842;28;20049;-66
2021/12/11 09:14:02;;;;;;;44.75;23.58;;;;;;;;;;5072850;28;20543;-66
2021/12/11 09:16:31;;;;;;;44.83;21.92;;;;;;;;;;5072928;28;20063;-66
2021/12/11 09:19:01;;;;;;;44.03;23.55;;;;;;;;;;5072189;28;20049;-66
2021/12/11 09:21:30;;;;;;;40.63;21.92;;;;;;;;;;5072143;28;20059;-66
2021/12/11 09:24:24;;;;;;;49.55;24.05;;;;;;;;;;5072822;28;20060;-67
2021/12/11 09:26:56;;;;;;;62.38;24.33;;;;;;;;;;5071837;28;20045;-67
2021/12/11 09:29:34;;;;;;;94.53;27.23;;;;;;;;;;5060709;28;20049;-67
2021/12/11 09:32:06;;;;;;;130.48;28.98;;;;;;;;;;5068676;28;20071;-66
2021/12/11 09:34:37;;;;;;;65.40;27.23;;;;;;;;;;5072774;28;20053;-67
2021/12/11 09:37:04;;;;;;;58.40;28.33;;;;;;;;;;5072490;28;20496;-66
2021/12/11 09:39:33;;;;;;;71.90;26.05;;;;;;;;;;5071752;28;20053;-65
2021/12/11 09:41:59;;;;;;;156.60;30.98;;;;;;;;;;5072572;28;20055;-66
2021/12/11 09:44:29;;;;;;;77.60;26.48;;;;;;;;;;5072621;28;20052;-67
2021/12/11 09:47:00;;;;;;;62.30;26.42;;;;;;;;;;5072165;28;20475;-66
2021/12/11 09:49:29;;;;;;;84.68;27.55;;;;;;;;;;5072668;28;20494;-67
2021/12/11 09:52:02;;;;;;;71.50;27.42;;;;;;;;;;5071787;28;20059;-66
2021/12/11 09:54:29;;;;;;;53.72;23.50;;;;;;;;;;5071909;28;20075;-62
2021/12/11 09:57:03;;;;;;;67.50;27.35;;;;;;;;;;5069619;28;20503;-66
2021/12/11 09:59:30;;;;;;;62.80;25.75;;;;;;;;;;5074637;28;20052;-66
2021/12/11 10:02:09;;;;;;;60.72;26.90;;;;;;;;;;5071474;28;20056;-66
2021/12/11 10:04:52;;;;;;;66.45;27.05;;;;;;;;;;5080083;28;20064;-67
2021/12/11 10:07:29;;;;;;;78.50;30.75;;;;;;;;;;5073811;28;20056;-66
2021/12/11 10:09:58;;;;;;;57.60;26.92;;;;;;;;;;5064626;28;20080;-66
2021/12/11 10:12:30;;;;;;;58.22;28.30;;;;;;;;;;5074168;28;20053;-67
2021/12/11 10:14:59;;;;;;;60.70;27.13;;;;;;;;;;5076051;28;20055;-66
2021/12/11 10:17:32;;;;;;;66.20;26.63;;;;;;;;;;5065126;28;20053;-69
2021/12/11 10:20:00;;;;;;;72.38;28.13;;;;;;;;;;5075141;28;20088;-66
2021/12/11 10:22:35;;;;;;;49.47;26.02;;;;;;;;;;5075322;28;20124;-66
2021/12/11 10:25:06;;;;;;;220.07;34.30;;;;;;;;;;5056554;28;20140;-66
2021/12/11 10:27:32;;;;;;;71.63;27.25;;;;;;;;;;5085042;28;20059;-67
2021/12/11 10:30:00;;;;;;;69.20;26.20;;;;;;;;;;5075102;28;20527;-67
2021/12/11 10:32:29;;;;;;;52.72;24.90;;;;;;;;;;5075546;28;20053;-68
2021/12/11 10:34:57;;;;;;;49.47;25.38;;;;;;;;;;5075974;28;20060;-68
2021/12/11 10:37:28;;;;;;;87.78;26.70;;;;;;;;;;5073549;28;20056;-69
2021/12/11 10:39:57;;;;;;;65.15;25.40;;;;;;;;;;5074436;28;20115;-68
2021/12/11 10:42:23;;;;;;;50.70;25.40;;;;;;;;;;5070308;28;20059;-68
2021/12/11 10:44:51;;;;;;;51.38;25.75;;;;;;;;;;5075159;28;20060;-68
2021/12/11 10:47:20;;;;;;;85.40;29.10;;;;;;;;;;5074484;28;20120;-67
2021/12/11 10:50:16;;;;;;;57.33;26.48;;;;;;;;;;5074886;28;20056;-68
2021/12/11 10:52:43;;;;;;;54.13;25.15;;;;;;;;;;5075052;28;20102;-68
2021/12/11 10:55:11;;;;;;;63.50;27.17;;;;;;;;;;5075502;28;20045;-68
2021/12/11 10:57:37;;;;;;;58.40;27.10;;;;;;;;;;5060701;28;20098;-69
2021/12/11 11:00:08;;;;;;;65.50;27.95;;;;;;;;;;5059720;28;20144;-67
2021/12/11 11:02:35;;;;;;;63.17;25.90;;;;;;;;;;5073804;28;20053;-67
2021/12/11 11:05:07;;;;;;;64.65;27.10;;;;;;;;;;5063368;28;20107;-67
2021/12/11 11:07:33;;;;;;;54.25;25.08;;;;;;;;;;5068925;28;20049;-69
2021/12/11 11:10:01;;;;;;;72.03;27.95;;;;;;;;;;5068030;28;20220;-68
2021/12/11 11:12:28;;;;;;;62.10;26.38;;;;;;;;;;5072026;28;20063;-69
2021/12/11 11:14:55;;;;;;;64.32;27.60;;;;;;;;;;5064912;28;20055;-68
2021/12/11 11:17:25;;;;;;;57.33;25.55;;;;;;;;;;5068285;28;20480;-68
2021/12/11 11:19:52;;;;;;;49.92;27.08;;;;;;;;;;5074903;28;20148;-68
2021/12/11 11:22:21;;;;;;;56.10;26.83;;;;;;;;;;5055665;28;20493;-68
2021/12/11 11:24:59;;;;;;;64.65;27.48;;;;;;;;;;5066906;28;20054;-68
2021/12/11 11:27:29;;;;;;;65.53;26.08;;;;;;;;;;5063988;28;20045;-68
2021/12/11 11:29:56;;;;;;;55.42;24.95;;;;;;;;;;5066803;28;20051;-67
2021/12/11 11:32:33;;;;;;;62.65;28.25;;;;;;;;;;5061235;28;20111;-69
2021/12/11 11:35:02;;;;;;;58.65;25.85;;;;;;;;;;5053534;28;20089;-67
2021/12/11 11:37:44;;;;;;;54.75;23.67;;;;;;;;;;5074255;28;20053;-67
2021/12/11 11:40:14;;;;;;;44.22;23.08;;;;;;;;;;5075546;28;20092;-69
2021/12/11 11:42:41;;;;;;;53.15;23.35;;;;;;;;;;5080047;28;20056;-68
2021/12/11 11:45:12;;;;;;;47.17;23.70;;;;;;;;;;5070190;28;20060;-68
2021/12/11 11:47:40;;;;;;;49.75;24.10;;;;;;;;;;5069000;28;21005;-67
2021/12/11 11:50:07;;;;;;;54.10;26.67;;;;;;;;;;5072526;28;20053;-67
2021/12/11 11:52:34;;;;;;;50.08;24.85;;;;;;;;;;5077741;28;20497;-67
2021/12/11 11:55:02;;;;;;;50.83;24.88;;;;;;;;;;5082367;28;20075;-67
2021/12/11 11:57:33;;;;;;;51.45;25.42;;;;;;;;;;5073357;28;20131;-67
2021/12/11 12:00:00;;;;;;;45.85;24.33;;;;;;;;;;5081041;28;20442;-68
2021/12/11 12:02:28;;;;;;;51.00;24.88;;;;;;;;;;5077263;28;20045;-67
2021/12/11 12:04:57;;;;;;;52.20;26.52;;;;;;;;;;5081140;28;20056;-66
2021/12/11 12:07:27;;;;;;;47.72;25.05;;;;;;;;;;5075272;28;20055;-68
2021/12/11 12:09:55;;;;;;;50.72;25.30;;;;;;;;;;5073015;28;20053;-67
2021/12/11 12:12:22;;;;;;;47.90;24.30;;;;;;;;;;5088249;28;20048;-68
2021/12/11 12:14:50;;;;;;;45.70;25.10;;;;;;;;;;5079974;28;20045;-64
2021/12/11 12:17:19;;;;;;;45.25;25.85;;;;;;;;;;5086093;28;20055;-69
2021/12/11 12:19:46;;;;;;;46.05;26.25;;;;;;;;;;5076950;28;20049;-69
2021/12/11 12:22:14;;;;;;;49.20;25.48;;;;;;;;;;5077549;28;20049;-68
2021/12/11 12:24:41;;;;;;;42.20;24.48;;;;;;;;;;5090282;28;20053;-68
2021/12/11 12:27:10;;;;;;;46.58;26.98;;;;;;;;;;5088315;28;20055;-68
2021/12/11 12:29:37;;;;;;;46.83;25.75;;;;;;;;;;5077154;28;20099;-69
2021/12/11 12:32:12;;;;;;;42.17;24.02;;;;;;;;;;5084402;28;20083;-70
2021/12/11 12:34:39;;;;;;;46.43;24.67;;;;;;;;;;5071800;28;20048;-69
2021/12/11 12:37:07;;;;;;;46.22;25.30;;;;;;;;;;5070595;28;20111;-70
2021/12/11 12:39:38;;;;;;;47.97;25.52;;;;;;;;;;5073076;28;20088;-70
2021/12/11 12:42:16;;;;;;;44.22;24.23;;;;;;;;;;5071712;28;20057;-68
2021/12/11 12:44:49;;;;;;;42.42;23.60;;;;;;;;;;5059513;28;20059;-69
2021/12/11 12:47:19;;;;;;;39.97;21.38;;;;;;;;;;5084077;28;20048;-69
2021/12/11 12:49:47;;;;;;;37.58;20.27;;;;;;;;;;5071844;28;20057;-69
2021/12/11 12:52:34;;;;;;;38.58;21.20;;;;;;;;;;5067002;28;20139;-69
2021/12/11 12:55:05;;;;;;;39.17;21.27;;;;;;;;;;5073077;28;20053;-67
2021/12/11 12:57:35;;;;;;;32.78;21.15;;;;;;;;;;5066648;28;20057;-67
2021/12/11 13:00:01;;;;;;;44.83;23.88;;;;;;;;;;5061972;28;20057;-69
2021/12/11 13:02:30;;;;;;;49.58;24.60;;;;;;;;;;5076735;28;20074;-68
2021/12/11 13:05:09;;;;;;;39.65;23.25;;;;;;;;;;5054863;28;20063;-68
2021/12/11 13:07:51;;;;;;;44.17;24.63;;;;;;;;;;5065358;28;20574;-68
2021/12/11 13:10:20;;;;;;;43.17;23.10;;;;;;;;;;5072076;28;20140;-67
2021/12/11 13:12:47;;;;;;;37.05;22.50;;;;;;;;;;5056279;28;20067;-68
2021/12/11 13:15:20;;;;;;;32.78;21.00;;;;;;;;;;5068704;28;20115;-68
2021/12/11 13:17:48;;;;;;;37.70;21.40;;;;;;;;;;5072353;28;20112;-68
2021/12/11 13:20:22;;;;;;;36.95;21.75;;;;;;;;;;5072534;28;20111;-68
2021/12/11 13:22:51;;;;;;;42.97;23.60;;;;;;;;;;5067431;28;20060;-68
2021/12/11 13:25:20;;;;;;;38.80;22.02;;;;;;;;;;5055121;28;20081;-68
2021/12/11 13:27:48;;;;;;;38.22;23.77;;;;;;;;;;5072326;28;20053;-67
2021/12/11 13:30:17;;;;;;;42.17;23.15;;;;;;;;;;5073734;28;20132;-68
2021/12/11 13:32:43;;;;;;;41.85;22.83;;;;;;;;;;5059511;28;20417;-69
2021/12/11 13:35:12;;;;;;;42.80;24.05;;;;;;;;;;5058301;28;20598;-68
2021/12/11 13:37:38;;;;;;;39.03;23.08;;;;;;;;;;5072729;28;20455;-68
2021/12/11 13:40:07;;;;;;;42.42;24.08;;;;;;;;;;5072007;28;20061;-68
2021/12/11 13:42:34;;;;;;;38.38;23.02;;;;;;;;;;5063917;28;20058;-69
2021/12/11 13:45:08;;;;;;;38.15;22.35;;;;;;;;;;5055177;28;20593;-69
2021/12/11 13:47:35;;;;;;;35.03;20.40;;;;;;;;;;5069714;28;20057;-69
2021/12/11 13:50:05;;;;;;;38.97;21.77;;;;;;;;;;5060534;28;20540;-69
2021/12/11 13:52:32;;;;;;;37.05;19.83;;;;;;;;;;5072397;28;20132;-68
2021/12/11 13:54:58;;;;;;;37.28;22.35;;;;;;;;;;5072407;28;20055;-68
2021/12/11 13:57:25;;;;;;;37.03;21.50;;;;;;;;;;5070060;28;20143;-68
2021/12/11 13:59:53;;;;;;;39.92;23.63;;;;;;;;;;5072189;28;20055;-69
2021/12/11 14:02:21;;;;;;;42.55;22.55;;;;;;;;;;5072423;28;20092;-68
2021/12/11 14:04:48;;;;;;;36.38;21.13;;;;;;;;;;5072115;28;20059;-68
2021/12/11 14:07:19;;;;;;;36.28;20.42;;;;;;;;;;5071103;28;20497;-67
2021/12/11 14:09:54;;;;;;;35.13;21.25;;;;;;;;;;5072303;28;20136;-67
2021/12/11 14:12:22;;;;;;;30.35;18.60;;;;;;;;;;5066961;28;20055;-62
2021/12/11 14:14:50;;;;;;;33.88;20.50;;;;;;;;;;5073255;28;20199;-71
2021/12/11 14:17:17;;;;;;;32.42;18.52;;;;;;;;;;5066047;28;20057;-70
2021/12/11 14:19:44;;;;;;;32.33;18.70;;;;;;;;;;5075621;28;20057;-68
2021/12/11 14:22:11;;;;;;;37.13;19.90;;;;;;;;;;5084214;28;20049;-70
2021/12/11 14:24:42;;;;;;;40.67;19.50;;;;;;;;;;5060943;28;20412;-72
2021/12/11 14:27:14;;;;;;;33.88;17.45;;;;;;;;;;5071983;28;20081;-70
2021/12/11 14:29:45;;;;;;;32.05;17.05;;;;;;;;;;5075151;28;20175;-71
2021/12/11 14:32:15;;;;;;;31.27;15.45;;;;;;;;;;5075078;28;20055;-73
2021/12/11 14:34:44;;;;;;;28.10;16.92;;;;;;;;;;5063362;28;20076;-71
2021/12/11 14:37:11;;;;;;;24.02;14.68;;;;;;;;;;5071743;28;20171;-73
2021/12/11 14:39:37;;;;;;;21.60;14.80;;;;;;;;;;5072105;28;20061;-72